sensor_id;sensor_type;location;lat;lon;timestamp;P1;durP1;ratioP1;P2;durP2;ratioP2
56329;SDS011;42236;48.058;10.632;2023-04-25T00:02:24;1.20;;;1.10;;
56329;SDS011;42236;48.058;10.632;2023-04-25T00:05:10;3.67;;;0.90;;
56329;SDS011;42236;48.058;10.632;2023-04-25T00:07:56;1.20;;;1.00;;
56329;SDS011;42236;48.058;10.632;2023-04-25T00:10:42;1.70;;;1.00;;
56329;SDS011;42236;48.058;10.632;2023-04-25T00:13:28;1.10;;;1.00;;
56329;SDS011;42236;48.058;10.632;2023-04-25T00:16:13;1.20;;;1.10;;
56329;SDS011;42236;48.058;10.632;2023-04-25T00:19:01;1.97;;;1.17;;
56329;SDS011;42236;48.058;10.632;2023-04-25T00:21:48;2.07;;;1.33;;
56329;SDS011;42236;48.058;10.632;2023-04-25T00:24:34;1.50;;;1.37;;
56329;SDS011;42236;48.058;10.632;2023-04-25T00:27:19;1.53;;;1.20;;
56329;SDS011;42236;48.058;10.632;2023-04-25T00:30:05;0.90;;;0.90;;
56329;SDS011;42236;48.058;10.632;2023-04-25T00:32:51;1.23;;;1.13;;
56329;SDS011;42236;48.058;10.632;2023-04-25T00:35:37;2.30;;;1.40;;
56329;SDS011;42236;48.058;10.632;2023-04-25T00:38:23;1.77;;;1.30;;
56329;SDS011;42236;48.058;10.632;2023-04-25T00:41:09;2.23;;;1.30;;
56329;SDS011;42236;48.058;10.632;2023-04-25T00:43:55;3.00;;;1.30;;
56329;SDS011;42236;48.058;10.632;2023-04-25T00:46:42;1.27;;;0.97;;
56329;SDS011;42236;48.058;10.632;2023-04-25T00:49:27;2.53;;;1.17;;
56329;SDS011;42236;48.058;10.632;2023-04-25T00:52:13;1.20;;;1.10;;
56329;SDS011;42236;48.058;10.632;2023-04-25T00:54:59;1.87;;;1.10;;
56329;SDS011;42236;48.058;10.632;2023-04-25T00:57:45;3.37;;;1.50;;
56329;SDS011;42236;48.058;10.632;2023-04-25T01:00:30;7.27;;;1.20;;
56329;SDS011;42236;48.058;10.632;2023-04-25T01:03:16;1.97;;;1.10;;
56329;SDS011;42236;48.058;10.632;2023-04-25T01:06:04;1.10;;;0.90;;
56329;SDS011;42236;48.058;10.632;2023-04-25T01:08:51;1.20;;;1.10;;
56329;SDS011;42236;48.058;10.632;2023-04-25T01:11:37;1.87;;;1.03;;
56329;SDS011;42236;48.058;10.632;2023-04-25T01:14:22;1.50;;;1.40;;
56329;SDS011;42236;48.058;10.632;2023-04-25T01:17:09;1.30;;;1.20;;
56329;SDS011;42236;48.058;10.632;2023-04-25T01:19:55;2.17;;;1.37;;
56329;SDS011;42236;48.058;10.632;2023-04-25T01:22:40;1.37;;;0.97;;
56329;SDS011;42236;48.058;10.632;2023-04-25T01:25:27;2.10;;;1.30;;
56329;SDS011;42236;48.058;10.632;2023-04-25T01:28:13;1.33;;;1.23;;
56329;SDS011;42236;48.058;10.632;2023-04-25T01:30:59;2.60;;;1.20;;
56329;SDS011;42236;48.058;10.632;2023-04-25T01:33:45;1.30;;;1.20;;
56329;SDS011;42236;48.058;10.632;2023-04-25T01:36:31;1.40;;;1.30;;
56329;SDS011;42236;48.058;10.632;2023-04-25T01:39:17;1.40;;;1.30;;
56329;SDS011;42236;48.058;10.632;2023-04-25T01:42:03;1.63;;;1.47;;
56329;SDS011;42236;48.058;10.632;2023-04-25T01:44:49;3.73;;;1.00;;
56329;SDS011;42236;48.058;10.632;2023-04-25T01:47:35;1.53;;;1.10;;
56329;SDS011;42236;48.058;10.632;2023-04-25T01:50:20;2.77;;;1.43;;
56329;SDS011;42236;48.058;10.632;2023-04-25T01:53:06;1.60;;;0.80;;
56329;SDS011;42236;48.058;10.632;2023-04-25T01:55:55;0.60;;;0.60;;
56329;SDS011;42236;48.058;10.632;2023-04-25T01:58:40;2.43;;;1.23;;
56329;SDS011;42236;48.058;10.632;2023-04-25T02:01:26;2.10;;;0.73;;
56329;SDS011;42236;48.058;10.632;2023-04-25T02:04:12;1.40;;;0.63;;
56329;SDS011;42236;48.058;10.632;2023-04-25T02:06:58;1.30;;;0.53;;
56329;SDS011;42236;48.058;10.632;2023-04-25T02:09:43;1.13;;;0.67;;
56329;SDS011;42236;48.058;10.632;2023-04-25T02:12:30;6.50;;;1.20;;
56329;SDS011;42236;48.058;10.632;2023-04-25T02:15:16;0.87;;;0.73;;
56329;SDS011;42236;48.058;10.632;2023-04-25T02:18:02;1.17;;;0.70;;
56329;SDS011;42236;48.058;10.632;2023-04-25T02:20:47;1.47;;;0.77;;
56329;SDS011;42236;48.058;10.632;2023-04-25T02:23:33;0.60;;;0.60;;
56329;SDS011;42236;48.058;10.632;2023-04-25T02:26:19;0.53;;;0.53;;
56329;SDS011;42236;48.058;10.632;2023-04-25T02:29:05;3.03;;;0.90;;
56329;SDS011;42236;48.058;10.632;2023-04-25T02:31:51;0.90;;;0.70;;
56329;SDS011;42236;48.058;10.632;2023-04-25T02:34:36;0.70;;;0.70;;
56329;SDS011;42236;48.058;10.632;2023-04-25T02:37:22;0.60;;;0.60;;
56329;SDS011;42236;48.058;10.632;2023-04-25T02:40:08;1.53;;;0.80;;
56329;SDS011;42236;48.058;10.632;2023-04-25T02:42:54;0.80;;;0.70;;
56329;SDS011;42236;48.058;10.632;2023-04-25T02:45:40;3.33;;;1.10;;
56329;SDS011;42236;48.058;10.632;2023-04-25T02:48:26;0.77;;;0.77;;
56329;SDS011;42236;48.058;10.632;2023-04-25T02:51:11;0.83;;;0.60;;
56329;SDS011;42236;48.058;10.632;2023-04-25T02:53:58;1.30;;;0.77;;
56329;SDS011;42236;48.058;10.632;2023-04-25T02:56:44;2.47;;;1.00;;
56329;SDS011;42236;48.058;10.632;2023-04-25T02:59:29;0.90;;;0.70;;
56329;SDS011;42236;48.058;10.632;2023-04-25T03:02:15;0.97;;;0.80;;
56329;SDS011;42236;48.058;10.632;2023-04-25T03:05:01;1.03;;;0.80;;
56329;SDS011;42236;48.058;10.632;2023-04-25T03:07:46;1.47;;;1.20;;
56329;SDS011;42236;48.058;10.632;2023-04-25T03:10:32;1.30;;;0.90;;
56329;SDS011;42236;48.058;10.632;2023-04-25T03:13:18;1.67;;;0.90;;
56329;SDS011;42236;48.058;10.632;2023-04-25T03:16:04;1.33;;;0.80;;
56329;SDS011;42236;48.058;10.632;2023-04-25T03:18:49;1.13;;;0.80;;
56329;SDS011;42236;48.058;10.632;2023-04-25T03:21:36;0.90;;;0.90;;
56329;SDS011;42236;48.058;10.632;2023-04-25T03:24:21;1.83;;;1.00;;
56329;SDS011;42236;48.058;10.632;2023-04-25T03:27:07;2.30;;;1.00;;
56329;SDS011;42236;48.058;10.632;2023-04-25T03:29:53;0.80;;;0.80;;
56329;SDS011;42236;48.058;10.632;2023-04-25T03:32:39;1.10;;;0.90;;
56329;SDS011;42236;48.058;10.632;2023-04-25T03:35:25;3.63;;;1.27;;
56329;SDS011;42236;48.058;10.632;2023-04-25T03:38:10;1.50;;;1.10;;
56329;SDS011;42236;48.058;10.632;2023-04-25T03:40:56;2.73;;;1.17;;
56329;SDS011;42236;48.058;10.632;2023-04-25T03:43:42;3.47;;;1.07;;
56329;SDS011;42236;48.058;10.632;2023-04-25T03:46:27;2.10;;;1.20;;
56329;SDS011;42236;48.058;10.632;2023-04-25T03:49:13;1.70;;;1.30;;
56329;SDS011;42236;48.058;10.632;2023-04-25T03:51:58;2.87;;;1.17;;
56329;SDS011;42236;48.058;10.632;2023-04-25T03:54:45;0.80;;;0.80;;
56329;SDS011;42236;48.058;10.632;2023-04-25T03:57:31;1.30;;;0.90;;
56329;SDS011;42236;48.058;10.632;2023-04-25T04:00:16;2.47;;;1.20;;
56329;SDS011;42236;48.058;10.632;2023-04-25T04:03:02;1.20;;;1.10;;
56329;SDS011;42236;48.058;10.632;2023-04-25T04:05:48;2.87;;;1.30;;
56329;SDS011;42236;48.058;10.632;2023-04-25T04:08:34;1.13;;;1.00;;
56329;SDS011;42236;48.058;10.632;2023-04-25T04:11:19;1.63;;;1.40;;
56329;SDS011;42236;48.058;10.632;2023-04-25T04:14:06;1.20;;;1.10;;
56329;SDS011;42236;48.058;10.632;2023-04-25T04:16:52;2.40;;;1.37;;
56329;SDS011;42236;48.058;10.632;2023-04-25T04:19:38;1.87;;;1.50;;
56329;SDS011;42236;48.058;10.632;2023-04-25T04:22:23;2.50;;;1.67;;
56329;SDS011;42236;48.058;10.632;2023-04-25T04:25:09;3.33;;;2.97;;
56329;SDS011;42236;48.058;10.632;2023-04-25T04:27:56;1.70;;;1.40;;
56329;SDS011;42236;48.058;10.632;2023-04-25T04:30:42;1.87;;;1.70;;
56329;SDS011;42236;48.058;10.632;2023-04-25T04:33:31;3.30;;;1.80;;
56329;SDS011;42236;48.058;10.632;2023-04-25T04:36:16;2.80;;;1.53;;
56329;SDS011;42236;48.058;10.632;2023-04-25T04:39:05;1.63;;;1.30;;
56329;SDS011;42236;48.058;10.632;2023-04-25T04:41:51;6.70;;;1.90;;
56329;SDS011;42236;48.058;10.632;2023-04-25T04:44:36;3.90;;;2.00;;
56329;SDS011;42236;48.058;10.632;2023-04-25T04:47:24;3.97;;;1.83;;
56329;SDS011;42236;48.058;10.632;2023-04-25T04:50:11;4.80;;;1.60;;
56329;SDS011;42236;48.058;10.632;2023-04-25T04:52:56;3.97;;;1.87;;
56329;SDS011;42236;48.058;10.632;2023-04-25T04:55:42;1.77;;;1.50;;
56329;SDS011;42236;48.058;10.632;2023-04-25T04:58:28;1.57;;;1.47;;
56329;SDS011;42236;48.058;10.632;2023-04-25T05:01:15;3.53;;;1.50;;
56329;SDS011;42236;48.058;10.632;2023-04-25T05:04:01;8.47;;;1.70;;
56329;SDS011;42236;48.058;10.632;2023-04-25T05:06:47;3.93;;;1.50;;
56329;SDS011;42236;48.058;10.632;2023-04-25T05:09:33;5.00;;;1.93;;
56329;SDS011;42236;48.058;10.632;2023-04-25T05:12:19;1.50;;;1.40;;
56329;SDS011;42236;48.058;10.632;2023-04-25T05:15:05;4.10;;;1.83;;
56329;SDS011;42236;48.058;10.632;2023-04-25T05:17:51;3.17;;;1.20;;
56329;SDS011;42236;48.058;10.632;2023-04-25T05:20:36;1.60;;;1.27;;
56329;SDS011;42236;48.058;10.632;2023-04-25T05:23:22;3.87;;;1.67;;
56329;SDS011;42236;48.058;10.632;2023-04-25T05:26:08;1.97;;;1.53;;
56329;SDS011;42236;48.058;10.632;2023-04-25T05:28:58;3.97;;;1.60;;
56329;SDS011;42236;48.058;10.632;2023-04-25T05:31:45;3.87;;;1.63;;
56329;SDS011;42236;48.058;10.632;2023-04-25T05:34:30;2.50;;;1.30;;
56329;SDS011;42236;48.058;10.632;2023-04-25T05:37:16;2.37;;;1.70;;
56329;SDS011;42236;48.058;10.632;2023-04-25T05:40:02;2.23;;;1.40;;
56329;SDS011;42236;48.058;10.632;2023-04-25T05:42:51;2.67;;;1.43;;
56329;SDS011;42236;48.058;10.632;2023-04-25T05:45:37;2.73;;;1.50;;
56329;SDS011;42236;48.058;10.632;2023-04-25T05:48:23;5.20;;;1.60;;
56329;SDS011;42236;48.058;10.632;2023-04-25T05:51:09;3.00;;;1.40;;
56329;SDS011;42236;48.058;10.632;2023-04-25T05:53:54;2.23;;;1.20;;
56329;SDS011;42236;48.058;10.632;2023-04-25T05:56:40;3.83;;;1.30;;
56329;SDS011;42236;48.058;10.632;2023-04-25T05:59:26;3.03;;;1.30;;
56329;SDS011;42236;48.058;10.632;2023-04-25T06:02:11;1.30;;;1.10;;
56329;SDS011;42236;48.058;10.632;2023-04-25T06:04:57;1.33;;;1.10;;
56329;SDS011;42236;48.058;10.632;2023-04-25T06:07:43;1.23;;;0.88;;
56329;SDS011;42236;48.058;10.632;2023-04-25T06:10:29;1.73;;;1.10;;
56329;SDS011;42236;48.058;10.632;2023-04-25T06:13:14;4.10;;;1.58;;
56329;SDS011;42236;48.058;10.632;2023-04-25T06:16:00;2.50;;;1.35;;
56329;SDS011;42236;48.058;10.632;2023-04-25T06:18:46;2.00;;;0.82;;
56329;SDS011;42236;48.058;10.632;2023-04-25T06:21:32;2.28;;;0.90;;
56329;SDS011;42236;48.058;10.632;2023-04-25T06:24:17;4.00;;;1.00;;
56329;SDS011;42236;48.058;10.632;2023-04-25T06:27:03;2.30;;;0.93;;
56329;SDS011;42236;48.058;10.632;2023-04-25T06:29:48;3.58;;;0.85;;
56329;SDS011;42236;48.058;10.632;2023-04-25T06:32:34;2.15;;;1.20;;
56329;SDS011;42236;48.058;10.632;2023-04-25T06:35:20;2.00;;;0.83;;
56329;SDS011;42236;48.058;10.632;2023-04-25T06:38:06;2.80;;;1.00;;
56329;SDS011;42236;48.058;10.632;2023-04-25T06:40:51;4.05;;;1.50;;
56329;SDS011;42236;48.058;10.632;2023-04-25T06:43:37;2.30;;;1.40;;
56329;SDS011;42236;48.058;10.632;2023-04-25T06:46:23;3.20;;;1.27;;
56329;SDS011;42236;48.058;10.632;2023-04-25T06:49:08;2.53;;;1.27;;
56329;SDS011;42236;48.058;10.632;2023-04-25T06:51:54;3.13;;;1.33;;
56329;SDS011;42236;48.058;10.632;2023-04-25T06:54:39;2.87;;;1.20;;
56329;SDS011;42236;48.058;10.632;2023-04-25T06:57:25;2.60;;;1.33;;
56329;SDS011;42236;48.058;10.632;2023-04-25T07:00:11;1.57;;;1.20;;
56329;SDS011;42236;48.058;10.632;2023-04-25T07:02:57;1.73;;;1.10;;
56329;SDS011;42236;48.058;10.632;2023-04-25T07:05:43;2.17;;;1.10;;
56329;SDS011;42236;48.058;10.632;2023-04-25T07:08:29;3.53;;;0.97;;
56329;SDS011;42236;48.058;10.632;2023-04-25T07:11:15;2.70;;;0.90;;
56329;SDS011;42236;48.058;10.632;2023-04-25T07:14:00;3.30;;;1.10;;
56329;SDS011;42236;48.058;10.632;2023-04-25T07:16:46;2.60;;;1.50;;
56329;SDS011;42236;48.058;10.632;2023-04-25T07:19:32;1.37;;;1.00;;
56329;SDS011;42236;48.058;10.632;2023-04-25T07:22:18;2.43;;;0.90;;
56329;SDS011;42236;48.058;10.632;2023-04-25T07:25:04;5.60;;;1.23;;
56329;SDS011;42236;48.058;10.632;2023-04-25T07:27:50;1.63;;;1.00;;
56329;SDS011;42236;48.058;10.632;2023-04-25T07:30:36;1.17;;;1.07;;
56329;SDS011;42236;48.058;10.632;2023-04-25T07:33:22;2.53;;;0.80;;
56329;SDS011;42236;48.058;10.632;2023-04-25T07:36:08;5.27;;;1.20;;
56329;SDS011;42236;48.058;10.632;2023-04-25T07:38:54;2.47;;;1.10;;
56329;SDS011;42236;48.058;10.632;2023-04-25T07:41:39;4.57;;;1.10;;
56329;SDS011;42236;48.058;10.632;2023-04-25T07:44:25;0.80;;;0.80;;
56329;SDS011;42236;48.058;10.632;2023-04-25T07:47:11;1.63;;;0.90;;
56329;SDS011;42236;48.058;10.632;2023-04-25T07:49:56;2.57;;;0.90;;
56329;SDS011;42236;48.058;10.632;2023-04-25T07:52:43;2.03;;;0.73;;
56329;SDS011;42236;48.058;10.632;2023-04-25T07:55:28;0.63;;;0.63;;
56329;SDS011;42236;48.058;10.632;2023-04-25T07:58:14;1.20;;;0.67;;
56329;SDS011;42236;48.058;10.632;2023-04-25T08:01:01;2.27;;;0.90;;
56329;SDS011;42236;48.058;10.632;2023-04-25T08:03:46;2.10;;;1.10;;
56329;SDS011;42236;48.058;10.632;2023-04-25T08:06:32;2.50;;;1.03;;
56329;SDS011;42236;48.058;10.632;2023-04-25T08:09:18;1.90;;;0.87;;
56329;SDS011;42236;48.058;10.632;2023-04-25T08:12:03;1.57;;;0.90;;
56329;SDS011;42236;48.058;10.632;2023-04-25T08:14:49;1.40;;;0.80;;
56329;SDS011;42236;48.058;10.632;2023-04-25T08:17:35;2.27;;;0.93;;
56329;SDS011;42236;48.058;10.632;2023-04-25T08:20:21;3.10;;;0.90;;
56329;SDS011;42236;48.058;10.632;2023-04-25T08:23:07;2.88;;;1.75;;
56329;SDS011;42236;48.058;10.632;2023-04-25T08:25:52;1.02;;;0.68;;
56329;SDS011;42236;48.058;10.632;2023-04-25T08:28:38;3.70;;;0.80;;
56329;SDS011;42236;48.058;10.632;2023-04-25T08:31:24;1.83;;;0.80;;
56329;SDS011;42236;48.058;10.632;2023-04-25T08:34:10;0.93;;;0.60;;
56329;SDS011;42236;48.058;10.632;2023-04-25T08:36:56;0.80;;;0.60;;
56329;SDS011;42236;48.058;10.632;2023-04-25T08:39:42;2.13;;;0.70;;
56329;SDS011;42236;48.058;10.632;2023-04-25T08:42:27;2.00;;;0.60;;
56329;SDS011;42236;48.058;10.632;2023-04-25T08:45:16;3.33;;;1.07;;
56329;SDS011;42236;48.058;10.632;2023-04-25T08:48:02;0.60;;;0.60;;
56329;SDS011;42236;48.058;10.632;2023-04-25T08:50:49;2.53;;;0.80;;
56329;SDS011;42236;48.058;10.632;2023-04-25T08:53:37;3.67;;;0.70;;
56329;SDS011;42236;48.058;10.632;2023-04-25T08:56:28;0.50;;;0.50;;
56329;SDS011;42236;48.058;10.632;2023-04-25T08:59:13;0.50;;;0.50;;
56329;SDS011;42236;48.058;10.632;2023-04-25T09:02:00;1.40;;;0.80;;
56329;SDS011;42236;48.058;10.632;2023-04-25T09:04:46;1.48;;;0.80;;
56329;SDS011;42236;48.058;10.632;2023-04-25T09:07:32;1.97;;;0.70;;
56329;SDS011;42236;48.058;10.632;2023-04-25T09:10:18;0.80;;;0.80;;
56329;SDS011;42236;48.058;10.632;2023-04-25T09:13:07;1.87;;;0.73;;
56329;SDS011;42236;48.058;10.632;2023-04-25T09:15:56;1.43;;;0.60;;
56329;SDS011;42236;48.058;10.632;2023-04-25T09:18:42;2.67;;;1.02;;
56329;SDS011;42236;48.058;10.632;2023-04-25T09:21:28;0.70;;;0.70;;
56329;SDS011;42236;48.058;10.632;2023-04-25T09:24:16;0.90;;;0.60;;
56329;SDS011;42236;48.058;10.632;2023-04-25T09:27:12;0.83;;;0.73;;
56329;SDS011;42236;48.058;10.632;2023-04-25T09:30:03;0.63;;;0.63;;
56329;SDS011;42236;48.058;10.632;2023-04-25T09:32:49;1.07;;;0.50;;
56329;SDS011;42236;48.058;10.632;2023-04-25T09:35:35;3.00;;;0.87;;
56329;SDS011;42236;48.058;10.632;2023-04-25T09:38:27;2.47;;;0.77;;
56329;SDS011;42236;48.058;10.632;2023-04-25T09:41:16;1.47;;;0.70;;
56329;SDS011;42236;48.058;10.632;2023-04-25T09:44:08;2.70;;;0.60;;
56329;SDS011;42236;48.058;10.632;2023-04-25T09:46:58;1.60;;;0.63;;
56329;SDS011;42236;48.058;10.632;2023-04-25T09:49:44;1.93;;;0.87;;
56329;SDS011;42236;48.058;10.632;2023-04-25T09:52:30;0.60;;;0.60;;
56329;SDS011;42236;48.058;10.632;2023-04-25T09:55:15;0.70;;;0.70;;
56329;SDS011;42236;48.058;10.632;2023-04-25T09:58:04;1.37;;;0.90;;
56329;SDS011;42236;48.058;10.632;2023-04-25T10:00:51;1.43;;;0.67;;
56329;SDS011;42236;48.058;10.632;2023-04-25T10:03:39;1.27;;;0.80;;
56329;SDS011;42236;48.058;10.632;2023-04-25T10:06:25;0.70;;;0.70;;
56329;SDS011;42236;48.058;10.632;2023-04-25T10:09:12;2.47;;;0.60;;
56329;SDS011;42236;48.058;10.632;2023-04-25T10:11:59;3.43;;;0.73;;
56329;SDS011;42236;48.058;10.632;2023-04-25T10:14:45;0.80;;;0.67;;
56329;SDS011;42236;48.058;10.632;2023-04-25T10:17:32;0.73;;;0.57;;
56329;SDS011;42236;48.058;10.632;2023-04-25T10:20:19;0.60;;;0.60;;
56329;SDS011;42236;48.058;10.632;2023-04-25T10:23:12;0.83;;;0.60;;
56329;SDS011;42236;48.058;10.632;2023-04-25T10:26:00;2.07;;;0.70;;
56329;SDS011;42236;48.058;10.632;2023-04-25T10:28:56;0.87;;;0.60;;
56329;SDS011;42236;48.058;10.632;2023-04-25T10:31:46;0.37;;;0.37;;
56329;SDS011;42236;48.058;10.632;2023-04-25T10:34:42;0.40;;;0.40;;
56329;SDS011;42236;48.058;10.632;2023-04-25T10:37:32;0.63;;;0.50;;
56329;SDS011;42236;48.058;10.632;2023-04-25T10:40:21;0.77;;;0.47;;
56329;SDS011;42236;48.058;10.632;2023-04-25T10:46:26;0.40;;;0.40;;
56329;SDS011;42236;48.058;10.632;2023-04-25T10:49:34;0.60;;;0.60;;
56329;SDS011;42236;48.058;10.632;2023-04-25T10:52:26;2.00;;;0.50;;
56329;SDS011;42236;48.058;10.632;2023-04-25T10:55:13;0.50;;;0.50;;
56329;SDS011;42236;48.058;10.632;2023-04-25T10:57:59;1.23;;;0.60;;
56329;SDS011;42236;48.058;10.632;2023-04-25T11:00:46;0.47;;;0.47;;
56329;SDS011;42236;48.058;10.632;2023-04-25T11:03:32;0.50;;;0.50;;
56329;SDS011;42236;48.058;10.632;2023-04-25T11:06:22;0.60;;;0.60;;
56329;SDS011;42236;48.058;10.632;2023-04-25T11:09:14;1.03;;;0.40;;
56329;SDS011;42236;48.058;10.632;2023-04-25T11:11:59;0.47;;;0.47;;
56329;SDS011;42236;48.058;10.632;2023-04-25T11:14:45;0.40;;;0.40;;
56329;SDS011;42236;48.058;10.632;2023-04-25T11:17:31;0.63;;;0.63;;
56329;SDS011;42236;48.058;10.632;2023-04-25T11:20:17;0.70;;;0.40;;
56329;SDS011;42236;48.058;10.632;2023-04-25T11:23:04;0.77;;;0.40;;
56329;SDS011;42236;48.058;10.632;2023-04-25T11:25:49;1.27;;;0.40;;
56329;SDS011;42236;48.058;10.632;2023-04-25T11:28:37;0.30;;;0.30;;
56329;SDS011;42236;48.058;10.632;2023-04-25T11:31:24;0.53;;;0.40;;
56329;SDS011;42236;48.058;10.632;2023-04-25T11:34:10;2.93;;;0.60;;
56329;SDS011;42236;48.058;10.632;2023-04-25T11:36:56;0.40;;;0.40;;
56329;SDS011;42236;48.058;10.632;2023-04-25T11:39:43;1.13;;;0.50;;
56329;SDS011;42236;48.058;10.632;2023-04-25T11:42:31;0.33;;;0.33;;
56329;SDS011;42236;48.058;10.632;2023-04-25T11:45:17;0.40;;;0.40;;
56329;SDS011;42236;48.058;10.632;2023-04-25T11:48:04;0.40;;;0.40;;
56329;SDS011;42236;48.058;10.632;2023-04-25T11:50:49;0.40;;;0.40;;
56329;SDS011;42236;48.058;10.632;2023-04-25T11:53:35;0.47;;;0.33;;
56329;SDS011;42236;48.058;10.632;2023-04-25T11:56:21;0.30;;;0.30;;
56329;SDS011;42236;48.058;10.632;2023-04-25T11:59:07;0.30;;;0.30;;
56329;SDS011;42236;48.058;10.632;2023-04-25T12:01:53;0.67;;;0.43;;
56329;SDS011;42236;48.058;10.632;2023-04-25T12:04:39;0.37;;;0.37;;
56329;SDS011;42236;48.058;10.632;2023-04-25T12:07:29;0.30;;;0.30;;
56329;SDS011;42236;48.058;10.632;2023-04-25T12:10:16;0.30;;;0.30;;
56329;SDS011;42236;48.058;10.632;2023-04-25T12:13:17;0.40;;;0.40;;
56329;SDS011;42236;48.058;10.632;2023-04-25T12:16:03;1.80;;;0.30;;
56329;SDS011;42236;48.058;10.632;2023-04-25T12:18:51;0.20;;;0.20;;
56329;SDS011;42236;48.058;10.632;2023-04-25T12:21:38;0.20;;;0.20;;
56329;SDS011;42236;48.058;10.632;2023-04-25T12:24:24;0.20;;;0.20;;
56329;SDS011;42236;48.058;10.632;2023-04-25T12:27:13;0.10;;;0.10;;
56329;SDS011;42236;48.058;10.632;2023-04-25T12:30:04;0.77;;;0.30;;
56329;SDS011;42236;48.058;10.632;2023-04-25T12:32:50;0.20;;;0.20;;
56329;SDS011;42236;48.058;10.632;2023-04-25T12:35:36;0.20;;;0.20;;
56329;SDS011;42236;48.058;10.632;2023-04-25T12:38:22;0.20;;;0.20;;
56329;SDS011;42236;48.058;10.632;2023-04-25T12:41:12;0.20;;;0.20;;
56329;SDS011;42236;48.058;10.632;2023-04-25T12:43:57;0.27;;;0.27;;
56329;SDS011;42236;48.058;10.632;2023-04-25T12:46:43;0.27;;;0.27;;
56329;SDS011;42236;48.058;10.632;2023-04-25T12:49:29;0.20;;;0.20;;
56329;SDS011;42236;48.058;10.632;2023-04-25T12:52:14;0.30;;;0.30;;
56329;SDS011;42236;48.058;10.632;2023-04-25T12:55:00;1.20;;;0.60;;
56329;SDS011;42236;48.058;10.632;2023-04-25T12:57:49;0.60;;;0.40;;
56329;SDS011;42236;48.058;10.632;2023-04-25T13:00:34;0.50;;;0.50;;
56329;SDS011;42236;48.058;10.632;2023-04-25T13:03:20;0.40;;;0.40;;
56329;SDS011;42236;48.058;10.632;2023-04-25T13:06:07;0.33;;;0.33;;
56329;SDS011;42236;48.058;10.632;2023-04-25T13:08:53;0.47;;;0.47;;
56329;SDS011;42236;48.058;10.632;2023-04-25T13:11:38;0.43;;;0.43;;
56329;SDS011;42236;48.058;10.632;2023-04-25T13:14:24;0.40;;;0.40;;
56329;SDS011;42236;48.058;10.632;2023-04-25T13:17:10;0.30;;;0.30;;
56329;SDS011;42236;48.058;10.632;2023-04-25T13:19:55;0.40;;;0.40;;
56329;SDS011;42236;48.058;10.632;2023-04-25T13:22:41;0.40;;;0.40;;
56329;SDS011;42236;48.058;10.632;2023-04-25T13:25:29;0.57;;;0.30;;
56329;SDS011;42236;48.058;10.632;2023-04-25T13:28:15;0.77;;;0.30;;
56329;SDS011;42236;48.058;10.632;2023-04-25T13:31:01;0.40;;;0.40;;
56329;SDS011;42236;48.058;10.632;2023-04-25T13:33:46;0.30;;;0.30;;
56329;SDS011;42236;48.058;10.632;2023-04-25T13:36:32;0.30;;;0.30;;
56329;SDS011;42236;48.058;10.632;2023-04-25T13:39:19;0.27;;;0.27;;
56329;SDS011;42236;48.058;10.632;2023-04-25T13:42:05;0.10;;;0.10;;
56329;SDS011;42236;48.058;10.632;2023-04-25T13:44:50;0.20;;;0.20;;
56329;SDS011;42236;48.058;10.632;2023-04-25T13:47:36;0.87;;;0.50;;
56329;SDS011;42236;48.058;10.632;2023-04-25T13:50:22;0.30;;;0.30;;
56329;SDS011;42236;48.058;10.632;2023-04-25T13:53:07;0.20;;;0.20;;
56329;SDS011;42236;48.058;10.632;2023-04-25T13:55:53;0.30;;;0.30;;
56329;SDS011;42236;48.058;10.632;2023-04-25T13:58:39;0.20;;;0.20;;
56329;SDS011;42236;48.058;10.632;2023-04-25T14:01:25;1.50;;;0.30;;
56329;SDS011;42236;48.058;10.632;2023-04-25T14:04:12;0.10;;;0.10;;
56329;SDS011;42236;48.058;10.632;2023-04-25T14:06:57;0.10;;;0.10;;
56329;SDS011;42236;48.058;10.632;2023-04-25T14:09:43;0.20;;;0.20;;
56329;SDS011;42236;48.058;10.632;2023-04-25T14:12:29;0.10;;;0.10;;
56329;SDS011;42236;48.058;10.632;2023-04-25T14:15:15;0.10;;;0.10;;
56329;SDS011;42236;48.058;10.632;2023-04-25T14:18:00;0.10;;;0.10;;
56329;SDS011;42236;48.058;10.632;2023-04-25T14:20:47;0.20;;;0.20;;
56329;SDS011;42236;48.058;10.632;2023-04-25T14:23:33;0.10;;;0.10;;
56329;SDS011;42236;48.058;10.632;2023-04-25T14:26:18;0.10;;;0.10;;
56329;SDS011;42236;48.058;10.632;2023-04-25T14:29:04;0.10;;;0.10;;
56329;SDS011;42236;48.058;10.632;2023-04-25T14:31:53;0.20;;;0.20;;
56329;SDS011;42236;48.058;10.632;2023-04-25T14:34:39;0.63;;;0.20;;
56329;SDS011;42236;48.058;10.632;2023-04-25T14:37:25;0.20;;;0.20;;
56329;SDS011;42236;48.058;10.632;2023-04-25T14:40:11;0.27;;;0.27;;
56329;SDS011;42236;48.058;10.632;2023-04-25T14:43:00;0.20;;;0.20;;
56329;SDS011;42236;48.058;10.632;2023-04-25T14:45:46;0.30;;;0.30;;
56329;SDS011;42236;48.058;10.632;2023-04-25T14:48:31;0.20;;;0.20;;
56329;SDS011;42236;48.058;10.632;2023-04-25T14:51:17;0.20;;;0.20;;
56329;SDS011;42236;48.058;10.632;2023-04-25T14:54:03;0.43;;;0.30;;
56329;SDS011;42236;48.058;10.632;2023-04-25T14:56:48;0.93;;;0.60;;
56329;SDS011;42236;48.058;10.632;2023-04-25T14:59:35;0.30;;;0.30;;
56329;SDS011;42236;48.058;10.632;2023-04-25T15:02:21;0.37;;;0.37;;
56329;SDS011;42236;48.058;10.632;2023-04-25T15:05:06;0.20;;;0.20;;
56329;SDS011;42236;48.058;10.632;2023-04-25T15:07:53;0.30;;;0.30;;
56329;SDS011;42236;48.058;10.632;2023-04-25T15:10:39;0.80;;;0.70;;
56329;SDS011;42236;48.058;10.632;2023-04-25T15:13:25;0.30;;;0.30;;
56329;SDS011;42236;48.058;10.632;2023-04-25T15:16:11;0.30;;;0.30;;
56329;SDS011;42236;48.058;10.632;2023-04-25T15:18:57;0.50;;;0.50;;
56329;SDS011;42236;48.058;10.632;2023-04-25T15:21:42;0.40;;;0.40;;
56329;SDS011;42236;48.058;10.632;2023-04-25T15:24:28;0.30;;;0.30;;
56329;SDS011;42236;48.058;10.632;2023-04-25T15:27:14;0.30;;;0.30;;
56329;SDS011;42236;48.058;10.632;2023-04-25T15:30:00;0.40;;;0.40;;
56329;SDS011;42236;48.058;10.632;2023-04-25T15:32:46;0.40;;;0.40;;
56329;SDS011;42236;48.058;10.632;2023-04-25T15:35:32;0.40;;;0.40;;
56329;SDS011;42236;48.058;10.632;2023-04-25T15:38:17;0.47;;;0.47;;
56329;SDS011;42236;48.058;10.632;2023-04-25T15:41:04;0.40;;;0.40;;
56329;SDS011;42236;48.058;10.632;2023-04-25T15:43:50;1.50;;;0.50;;
56329;SDS011;42236;48.058;10.632;2023-04-25T15:46:37;0.60;;;0.60;;
56329;SDS011;42236;48.058;10.632;2023-04-25T15:49:23;0.43;;;0.43;;
56329;SDS011;42236;48.058;10.632;2023-04-25T15:52:09;1.27;;;0.50;;
56329;SDS011;42236;48.058;10.632;2023-04-25T15:54:54;0.50;;;0.50;;
56329;SDS011;42236;48.058;10.632;2023-04-25T15:57:40;0.43;;;0.40;;
56329;SDS011;42236;48.058;10.632;2023-04-25T16:00:26;1.50;;;1.13;;
56329;SDS011;42236;48.058;10.632;2023-04-25T16:03:12;3.47;;;0.77;;
56329;SDS011;42236;48.058;10.632;2023-04-25T16:05:58;1.00;;;0.40;;
56329;SDS011;42236;48.058;10.632;2023-04-25T16:08:43;1.00;;;0.50;;
56329;SDS011;42236;48.058;10.632;2023-04-25T16:11:29;1.07;;;0.50;;
56329;SDS011;42236;48.058;10.632;2023-04-25T16:14:20;0.53;;;0.53;;
56329;SDS011;42236;48.058;10.632;2023-04-25T16:17:06;0.50;;;0.50;;
56329;SDS011;42236;48.058;10.632;2023-04-25T16:19:52;0.60;;;0.60;;
56329;SDS011;42236;48.058;10.632;2023-04-25T16:22:40;0.60;;;0.50;;
56329;SDS011;42236;48.058;10.632;2023-04-25T16:25:28;0.50;;;0.50;;
56329;SDS011;42236;48.058;10.632;2023-04-25T16:28:16;0.63;;;0.63;;
56329;SDS011;42236;48.058;10.632;2023-04-25T16:31:02;0.50;;;0.50;;